sensor_id;sensor_type;location;lat;lon;timestamp;temperature;humidity
7708;DHT22;3896;48.758;8.888;2023-05-20T00:00:48;11.30;99.90
7708;DHT22;3896;48.758;8.888;2023-05-20T00:03:15;11.30;99.90
7708;DHT22;3896;48.758;8.888;2023-05-20T00:05:41;11.20;99.90
7708;DHT22;3896;48.758;8.888;2023-05-20T00:08:06;11.20;99.90
7708;DHT22;3896;48.758;8.888;2023-05-20T00:10:34;11.20;99.90
7708;DHT22;3896;48.758;8.888;2023-05-20T00:13:00;11.20;99.90
7708;DHT22;3896;48.758;8.888;2023-05-20T00:15:26;11.20;99.90
7708;DHT22;3896;48.758;8.888;2023-05-20T00:17:52;11.20;99.90
7708;DHT22;3896;48.758;8.888;2023-05-20T00:20:18;11.20;99.90
7708;DHT22;3896;48.758;8.888;2023-05-20T00:22:43;11.20;99.90
7708;DHT22;3896;48.758;8.888;2023-05-20T00:25:09;11.10;99.90
7708;DHT22;3896;48.758;8.888;2023-05-20T00:27:34;11.10;99.90
7708;DHT22;3896;48.758;8.888;2023-05-20T00:30:00;11.10;99.90
7708;DHT22;3896;48.758;8.888;2023-05-20T00:32:25;11.10;99.90
7708;DHT22;3896;48.758;8.888;2023-05-20T00:34:58;11.10;99.90
7708;DHT22;3896;48.758;8.888;2023-05-20T00:37:24;11.00;99.90
7708;DHT22;3896;48.758;8.888;2023-05-20T00:39:49;11.00;99.90
7708;DHT22;3896;48.758;8.888;2023-05-20T00:42:25;11.00;99.90
7708;DHT22;3896;48.758;8.888;2023-05-20T00:44:52;11.00;99.90
7708;DHT22;3896;48.758;8.888;2023-05-20T00:47:20;11.00;99.90
7708;DHT22;3896;48.758;8.888;2023-05-20T00:49:49;11.00;99.90
7708;DHT22;3896;48.758;8.888;2023-05-20T00:52:16;11.00;99.90
7708;DHT22;3896;48.758;8.888;2023-05-20T00:54:42;10.90;99.90
7708;DHT22;3896;48.758;8.888;2023-05-20T00:57:08;11.00;99.90
7708;DHT22;3896;48.758;8.888;2023-05-20T00:59:37;10.90;99.90
7708;DHT22;3896;48.758;8.888;2023-05-20T01:02:04;10.90;99.90
7708;DHT22;3896;48.758;8.888;2023-05-20T01:04:30;11.00;99.90
7708;DHT22;3896;48.758;8.888;2023-05-20T01:06:57;10.90;99.90
7708;DHT22;3896;48.758;8.888;2023-05-20T01:09:23;10.90;99.90
7708;DHT22;3896;48.758;8.888;2023-05-20T01:12:03;10.90;99.90
7708;DHT22;3896;48.758;8.888;2023-05-20T01:14:34;10.90;99.90
7708;DHT22;3896;48.758;8.888;2023-05-20T01:17:01;10.90;99.90
7708;DHT22;3896;48.758;8.888;2023-05-20T01:19:40;10.90;99.90
7708;DHT22;3896;48.758;8.888;2023-05-20T01:22:09;10.90;99.90
7708;DHT22;3896;48.758;8.888;2023-05-20T01:24:46;10.90;99.90
7708;DHT22;3896;48.758;8.888;2023-05-20T01:27:18;10.90;99.90
7708;DHT22;3896;48.758;8.888;2023-05-20T01:29:45;10.90;99.90
7708;DHT22;3896;48.758;8.888;2023-05-20T01:32:27;10.90;99.90
7708;DHT22;3896;48.758;8.888;2023-05-20T01:34:56;10.90;99.90
7708;DHT22;3896;48.758;8.888;2023-05-20T01:37:23;10.90;99.90
7708;DHT22;3896;48.758;8.888;2023-05-20T01:39:51;11.00;99.90
7708;DHT22;3896;48.758;8.888;2023-05-20T01:42:18;11.00;99.90
7708;DHT22;3896;48.758;8.888;2023-05-20T01:44:44;11.00;99.90
7708;DHT22;3896;48.758;8.888;2023-05-20T01:47:10;11.00;99.90
7708;DHT22;3896;48.758;8.888;2023-05-20T01:49:35;11.00;99.90
7708;DHT22;3896;48.758;8.888;2023-05-20T01:52:01;11.00;99.90
7708;DHT22;3896;48.758;8.888;2023-05-20T01:54:26;11.00;99.90
7708;DHT22;3896;48.758;8.888;2023-05-20T01:56:52;11.10;99.90
7708;DHT22;3896;48.758;8.888;2023-05-20T01:59:18;11.00;99.90
7708;DHT22;3896;48.758;8.888;2023-05-20T02:01:43;11.10;99.90
7708;DHT22;3896;48.758;8.888;2023-05-20T02:04:10;11.10;99.90
7708;DHT22;3896;48.758;8.888;2023-05-20T02:06:36;11.10;99.90
7708;DHT22;3896;48.758;8.888;2023-05-20T02:09:02;11.10;99.90
7708;DHT22;3896;48.758;8.888;2023-05-20T02:11:27;11.10;99.90
7708;DHT22;3896;48.758;8.888;2023-05-20T02:13:53;11.10;99.90
7708;DHT22;3896;48.758;8.888;2023-05-20T02:16:18;11.10;99.90
7708;DHT22;3896;48.758;8.888;2023-05-20T02:18:44;11.10;99.90
7708;DHT22;3896;48.758;8.888;2023-05-20T02:21:09;11.10;99.90
7708;DHT22;3896;48.758;8.888;2023-05-20T02:23:35;11.20;99.90
7708;DHT22;3896;48.758;8.888;2023-05-20T02:26:01;11.20;99.90
7708;DHT22;3896;48.758;8.888;2023-05-20T02:28:27;11.20;99.90
7708;DHT22;3896;48.758;8.888;2023-05-20T02:30:52;11.20;99.90
7708;DHT22;3896;48.758;8.888;2023-05-20T02:33:18;11.20;99.90
7708;DHT22;3896;48.758;8.888;2023-05-20T02:35:44;11.20;99.90
7708;DHT22;3896;48.758;8.888;2023-05-20T02:38:11;11.20;99.90
7708;DHT22;3896;48.758;8.888;2023-05-20T02:40:36;11.20;99.90
7708;DHT22;3896;48.758;8.888;2023-05-20T02:43:02;11.20;99.90
7708;DHT22;3896;48.758;8.888;2023-05-20T02:45:27;11.30;99.90
7708;DHT22;3896;48.758;8.888;2023-05-20T02:47:53;11.20;99.90
7708;DHT22;3896;48.758;8.888;2023-05-20T02:50:19;11.30;99.90
7708;DHT22;3896;48.758;8.888;2023-05-20T02:52:44;11.30;99.90
7708;DHT22;3896;48.758;8.888;2023-05-20T02:55:11;11.30;99.90
7708;DHT22;3896;48.758;8.888;2023-05-20T02:57:37;11.30;99.90
7708;DHT22;3896;48.758;8.888;2023-05-20T03:00:06;11.30;99.90
7708;DHT22;3896;48.758;8.888;2023-05-20T03:02:35;11.30;99.90
7708;DHT22;3896;48.758;8.888;2023-05-20T03:05:01;11.30;99.90
7708;DHT22;3896;48.758;8.888;2023-05-20T03:07:27;11.30;99.90
7708;DHT22;3896;48.758;8.888;2023-05-20T03:09:52;11.30;99.90
7708;DHT22;3896;48.758;8.888;2023-05-20T03:12:18;11.30;99.90
7708;DHT22;3896;48.758;8.888;2023-05-20T03:14:43;11.30;99.90
7708;DHT22;3896;48.758;8.888;2023-05-20T03:17:09;11.30;99.90
7708;DHT22;3896;48.758;8.888;2023-05-20T03:19:36;11.30;99.90
7708;DHT22;3896;48.758;8.888;2023-05-20T03:22:01;11.30;99.90
7708;DHT22;3896;48.758;8.888;2023-05-20T03:24:28;11.30;99.90
7708;DHT22;3896;48.758;8.888;2023-05-20T03:26:53;11.30;99.90
7708;DHT22;3896;48.758;8.888;2023-05-20T03:29:21;11.30;99.90
7708;DHT22;3896;48.758;8.888;2023-05-20T03:31:47;11.40;99.90
7708;DHT22;3896;48.758;8.888;2023-05-20T03:34:12;11.30;99.90
7708;DHT22;3896;48.758;8.888;2023-05-20T03:36:38;11.40;99.90
7708;DHT22;3896;48.758;8.888;2023-05-20T03:39:03;11.40;99.90
7708;DHT22;3896;48.758;8.888;2023-05-20T03:41:29;11.40;99.90
7708;DHT22;3896;48.758;8.888;2023-05-20T03:43:54;11.40;99.90
7708;DHT22;3896;48.758;8.888;2023-05-20T03:46:20;11.40;99.90
7708;DHT22;3896;48.758;8.888;2023-05-20T03:48:46;11.40;99.90
7708;DHT22;3896;48.758;8.888;2023-05-20T03:51:11;11.40;99.90
7708;DHT22;3896;48.758;8.888;2023-05-20T03:53:37;11.40;99.90
7708;DHT22;3896;48.758;8.888;2023-05-20T03:56:02;11.40;99.90
7708;DHT22;3896;48.758;8.888;2023-05-20T03:58:28;11.50;99.90
7708;DHT22;3896;48.758;8.888;2023-05-20T04:00:55;11.50;99.90
7708;DHT22;3896;48.758;8.888;2023-05-20T04:03:21;11.50;99.90
7708;DHT22;3896;48.758;8.888;2023-05-20T04:05:47;11.50;99.90
7708;DHT22;3896;48.758;8.888;2023-05-20T04:08:12;11.50;99.90
7708;DHT22;3896;48.758;8.888;2023-05-20T04:10:40;11.50;99.90
7708;DHT22;3896;48.758;8.888;2023-05-20T04:13:07;11.60;99.90
7708;DHT22;3896;48.758;8.888;2023-05-20T04:15:34;11.60;99.90
7708;DHT22;3896;48.758;8.888;2023-05-20T04:18:01;11.60;99.90
7708;DHT22;3896;48.758;8.888;2023-05-20T04:20:26;11.60;99.90
7708;DHT22;3896;48.758;8.888;2023-05-20T04:22:52;11.60;99.90
7708;DHT22;3896;48.758;8.888;2023-05-20T04:25:18;11.70;99.90
7708;DHT22;3896;48.758;8.888;2023-05-20T04:27:44;11.70;99.90
7708;DHT22;3896;48.758;8.888;2023-05-20T04:30:10;11.70;99.90
7708;DHT22;3896;48.758;8.888;2023-05-20T04:32:36;11.70;99.90
7708;DHT22;3896;48.758;8.888;2023-05-20T04:35:03;11.70;99.90
7708;DHT22;3896;48.758;8.888;2023-05-20T04:37:32;11.70;99.90
7708;DHT22;3896;48.758;8.888;2023-05-20T04:39:57;11.70;99.90
7708;DHT22;3896;48.758;8.888;2023-05-20T04:42:23;11.70;99.90
7708;DHT22;3896;48.758;8.888;2023-05-20T04:44:48;11.80;99.90
7708;DHT22;3896;48.758;8.888;2023-05-20T04:47:14;11.80;99.90
7708;DHT22;3896;48.758;8.888;2023-05-20T04:49:40;11.80;99.90
7708;DHT22;3896;48.758;8.888;2023-05-20T04:52:06;11.80;99.90
7708;DHT22;3896;48.758;8.888;2023-05-20T04:54:32;11.80;99.90
7708;DHT22;3896;48.758;8.888;2023-05-20T04:56:58;11.90;99.90
7708;DHT22;3896;48.758;8.888;2023-05-20T04:59:24;11.90;99.90
7708;DHT22;3896;48.758;8.888;2023-05-20T05:01:50;11.90;99.90
7708;DHT22;3896;48.758;8.888;2023-05-20T05:04:15;11.90;99.90
7708;DHT22;3896;48.758;8.888;2023-05-20T05:06:41;12.00;99.90
7708;DHT22;3896;48.758;8.888;2023-05-20T05:09:07;12.00;99.90
7708;DHT22;3896;48.758;8.888;2023-05-20T05:11:33;12.00;99.90
7708;DHT22;3896;48.758;8.888;2023-05-20T05:13:58;12.00;99.90
7708;DHT22;3896;48.758;8.888;2023-05-20T05:16:24;12.10;99.90
7708;DHT22;3896;48.758;8.888;2023-05-20T05:18:50;12.10;99.90
7708;DHT22;3896;48.758;8.888;2023-05-20T05:21:15;12.20;99.90
7708;DHT22;3896;48.758;8.888;2023-05-20T05:23:41;12.20;99.90
7708;DHT22;3896;48.758;8.888;2023-05-20T05:26:07;12.20;99.90
7708;DHT22;3896;48.758;8.888;2023-05-20T05:28:33;12.20;99.90
7708;DHT22;3896;48.758;8.888;2023-05-20T05:30:58;12.30;99.90
7708;DHT22;3896;48.758;8.888;2023-05-20T05:33:24;12.40;99.90
7708;DHT22;3896;48.758;8.888;2023-05-20T05:35:50;12.40;99.90
7708;DHT22;3896;48.758;8.888;2023-05-20T05:38:15;12.50;99.90
7708;DHT22;3896;48.758;8.888;2023-05-20T05:40:41;12.50;99.90
7708;DHT22;3896;48.758;8.888;2023-05-20T05:43:07;12.60;99.90
7708;DHT22;3896;48.758;8.888;2023-05-20T05:45:32;12.60;99.90
7708;DHT22;3896;48.758;8.888;2023-05-20T05:47:58;12.70;99.90
7708;DHT22;3896;48.758;8.888;2023-05-20T05:50:24;12.70;99.90
7708;DHT22;3896;48.758;8.888;2023-05-20T05:52:49;12.80;99.90
7708;DHT22;3896;48.758;8.888;2023-05-20T05:55:15;12.80;99.90
7708;DHT22;3896;48.758;8.888;2023-05-20T05:57:42;12.90;99.90
7708;DHT22;3896;48.758;8.888;2023-05-20T06:00:08;12.90;99.90
7708;DHT22;3896;48.758;8.888;2023-05-20T06:02:34;13.00;99.90
7708;DHT22;3896;48.758;8.888;2023-05-20T06:05:03;13.00;99.90
7708;DHT22;3896;48.758;8.888;2023-05-20T06:07:29;13.10;99.90
7708;DHT22;3896;48.758;8.888;2023-05-20T06:09:55;13.20;99.90
7708;DHT22;3896;48.758;8.888;2023-05-20T06:12:20;13.20;99.90
7708;DHT22;3896;48.758;8.888;2023-05-20T06:14:46;13.30;99.90
7708;DHT22;3896;48.758;8.888;2023-05-20T06:17:12;13.40;99.90
7708;DHT22;3896;48.758;8.888;2023-05-20T06:19:37;13.40;99.90
7708;DHT22;3896;48.758;8.888;2023-05-20T06:22:03;13.50;99.90
7708;DHT22;3896;48.758;8.888;2023-05-20T06:24:29;13.70;99.90
7708;DHT22;3896;48.758;8.888;2023-05-20T06:26:54;13.70;99.90
7708;DHT22;3896;48.758;8.888;2023-05-20T06:29:20;13.80;99.90
7708;DHT22;3896;48.758;8.888;2023-05-20T06:31:45;13.80;99.90
7708;DHT22;3896;48.758;8.888;2023-05-20T06:34:11;13.90;99.90
7708;DHT22;3896;48.758;8.888;2023-05-20T06:36:37;14.00;99.90
7708;DHT22;3896;48.758;8.888;2023-05-20T06:39:02;14.00;99.90
7708;DHT22;3896;48.758;8.888;2023-05-20T06:41:30;14.10;99.90
7708;DHT22;3896;48.758;8.888;2023-05-20T06:43:55;14.20;99.90
7708;DHT22;3896;48.758;8.888;2023-05-20T06:46:21;14.20;99.90
7708;DHT22;3896;48.758;8.888;2023-05-20T06:48:46;14.30;99.90
7708;DHT22;3896;48.758;8.888;2023-05-20T06:51:12;14.40;99.90
7708;DHT22;3896;48.758;8.888;2023-05-20T06:53:38;14.50;99.90
7708;DHT22;3896;48.758;8.888;2023-05-20T06:56:04;14.60;99.90
7708;DHT22;3896;48.758;8.888;2023-05-20T06:58:29;14.60;99.90
7708;DHT22;3896;48.758;8.888;2023-05-20T07:00:55;14.70;99.90
7708;DHT22;3896;48.758;8.888;2023-05-20T07:03:21;14.80;99.90
7708;DHT22;3896;48.758;8.888;2023-05-20T07:05:47;14.90;99.90
7708;DHT22;3896;48.758;8.888;2023-05-20T07:08:12;15.00;99.90
7708;DHT22;3896;48.758;8.888;2023-05-20T07:10:38;15.00;99.90
7708;DHT22;3896;48.758;8.888;2023-05-20T07:13:03;15.10;99.90
7708;DHT22;3896;48.758;8.888;2023-05-20T07:15:29;15.20;99.90
7708;DHT22;3896;48.758;8.888;2023-05-20T07:17:55;15.30;99.90
7708;DHT22;3896;48.758;8.888;2023-05-20T07:20:20;15.40;99.90
7708;DHT22;3896;48.758;8.888;2023-05-20T07:22:46;15.40;99.90
7708;DHT22;3896;48.758;8.888;2023-05-20T07:25:13;15.50;99.90
7708;DHT22;3896;48.758;8.888;2023-05-20T07:27:39;15.50;99.90
7708;DHT22;3896;48.758;8.888;2023-05-20T07:30:05;15.60;99.90
7708;DHT22;3896;48.758;8.888;2023-05-20T07:32:31;15.70;99.90
7708;DHT22;3896;48.758;8.888;2023-05-20T07:34:56;15.80;99.90
7708;DHT22;3896;48.758;8.888;2023-05-20T07:37:22;15.90;99.90
7708;DHT22;3896;48.758;8.888;2023-05-20T07:39:47;16.00;99.90
7708;DHT22;3896;48.758;8.888;2023-05-20T07:42:13;16.10;99.90
7708;DHT22;3896;48.758;8.888;2023-05-20T07:44:38;16.10;99.90
7708;DHT22;3896;48.758;8.888;2023-05-20T07:47:04;16.20;99.90
7708;DHT22;3896;48.758;8.888;2023-05-20T07:49:30;16.30;99.90
7708;DHT22;3896;48.758;8.888;2023-05-20T07:51:55;16.40;99.90
7708;DHT22;3896;48.758;8.888;2023-05-20T07:54:22;16.50;99.90
7708;DHT22;3896;48.758;8.888;2023-05-20T07:56:47;16.60;99.90
7708;DHT22;3896;48.758;8.888;2023-05-20T07:59:13;16.70;99.90
7708;DHT22;3896;48.758;8.888;2023-05-20T08:01:40;16.80;99.90
7708;DHT22;3896;48.758;8.888;2023-05-20T08:04:06;16.90;99.90
7708;DHT22;3896;48.758;8.888;2023-05-20T08:06:32;17.00;99.90
7708;DHT22;3896;48.758;8.888;2023-05-20T08:09:00;17.00;99.90
7708;DHT22;3896;48.758;8.888;2023-05-20T08:11:26;17.10;99.60
7708;DHT22;3896;48.758;8.888;2023-05-20T08:13:52;17.20;99.40
7708;DHT22;3896;48.758;8.888;2023-05-20T08:16:17;17.30;99.20
7708;DHT22;3896;48.758;8.888;2023-05-20T08:18:43;17.40;99.00
7708;DHT22;3896;48.758;8.888;2023-05-20T08:21:08;17.50;98.20
7708;DHT22;3896;48.758;8.888;2023-05-20T08:23:35;17.60;97.60
7708;DHT22;3896;48.758;8.888;2023-05-20T08:26:01;17.70;97.00
7708;DHT22;3896;48.758;8.888;2023-05-20T08:28:28;17.80;96.60
7708;DHT22;3896;48.758;8.888;2023-05-20T08:30:53;17.90;96.20
7708;DHT22;3896;48.758;8.888;2023-05-20T08:33:19;18.00;95.50
7708;DHT22;3896;48.758;8.888;2023-05-20T08:35:46;18.10;95.10
7708;DHT22;3896;48.758;8.888;2023-05-20T08:38:12;18.10;94.40
7708;DHT22;3896;48.758;8.888;2023-05-20T08:40:37;18.20;94.00
7708;DHT22;3896;48.758;8.888;2023-05-20T08:43:03;18.30;93.80
7708;DHT22;3896;48.758;8.888;2023-05-20T08:45:32;18.40;93.40
7708;DHT22;3896;48.758;8.888;2023-05-20T08:47:58;18.40;93.00
7708;DHT22;3896;48.758;8.888;2023-05-20T08:50:24;18.50;92.70
7708;DHT22;3896;48.758;8.888;2023-05-20T08:52:49;18.60;92.40
7708;DHT22;3896;48.758;8.888;2023-05-20T08:55:45;18.60;92.30
7708;DHT22;3896;48.758;8.888;2023-05-20T08:58:11;18.70;92.20
7708;DHT22;3896;48.758;8.888;2023-05-20T09:00:39;18.80;91.90
7708;DHT22;3896;48.758;8.888;2023-05-20T09:03:06;18.80;91.70
7708;DHT22;3896;48.758;8.888;2023-05-20T09:05:33;18.90;91.60
7708;DHT22;3896;48.758;8.888;2023-05-20T09:08:10;19.00;91.50
7708;DHT22;3896;48.758;8.888;2023-05-20T09:10:37;19.00;91.20
7708;DHT22;3896;48.758;8.888;2023-05-20T09:13:04;19.10;91.30
7708;DHT22;3896;48.758;8.888;2023-05-20T09:15:31;19.20;91.60
7708;DHT22;3896;48.758;8.888;2023-05-20T09:18:01;19.30;91.10
7708;DHT22;3896;48.758;8.888;2023-05-20T09:20:27;19.50;90.80
7708;DHT22;3896;48.758;8.888;2023-05-20T09:23:04;19.60;90.10
7708;DHT22;3896;48.758;8.888;2023-05-20T09:25:30;19.70;89.80
7708;DHT22;3896;48.758;8.888;2023-05-20T09:27:55;19.80;88.70
7708;DHT22;3896;48.758;8.888;2023-05-20T09:30:21;19.90;88.00
7708;DHT22;3896;48.758;8.888;2023-05-20T09:32:57;20.00;87.40
7708;DHT22;3896;48.758;8.888;2023-05-20T09:35:24;20.10;87.00
7708;DHT22;3896;48.758;8.888;2023-05-20T09:37:57;20.20;86.20
7708;DHT22;3896;48.758;8.888;2023-05-20T09:40:25;20.30;85.00
7708;DHT22;3896;48.758;8.888;2023-05-20T09:43:17;20.40;84.00
7708;DHT22;3896;48.758;8.888;2023-05-20T09:45:43;20.50;83.30
7708;DHT22;3896;48.758;8.888;2023-05-20T09:48:09;20.60;82.50
7708;DHT22;3896;48.758;8.888;2023-05-20T09:50:36;20.70;82.00
7708;DHT22;3896;48.758;8.888;2023-05-20T09:53:03;20.70;81.30
7708;DHT22;3896;48.758;8.888;2023-05-20T09:55:29;20.80;80.80
7708;DHT22;3896;48.758;8.888;2023-05-20T09:57:55;20.90;80.30
7708;DHT22;3896;48.758;8.888;2023-05-20T10:00:21;21.00;80.00
7708;DHT22;3896;48.758;8.888;2023-05-20T10:02:48;21.10;79.40
7708;DHT22;3896;48.758;8.888;2023-05-20T10:05:21;21.20;78.80
7708;DHT22;3896;48.758;8.888;2023-05-20T10:08:13;21.20;78.00
7708;DHT22;3896;48.758;8.888;2023-05-20T10:22:08;21.70;76.10
7708;DHT22;3896;48.758;8.888;2023-05-20T10:24:38;21.90;75.60
7708;DHT22;3896;48.758;8.888;2023-05-20T10:27:09;22.00;75.40
7708;DHT22;3896;48.758;8.888;2023-05-20T10:32:27;22.30;74.20
7708;DHT22;3896;48.758;8.888;2023-05-20T10:34:58;22.40;73.70
7708;DHT22;3896;48.758;8.888;2023-05-20T10:37:29;22.50;72.90
7708;DHT22;3896;48.758;8.888;2023-05-20T10:40:12;22.70;73.10
7708;DHT22;3896;48.758;8.888;2023-05-20T10:42:38;22.80;71.80
7708;DHT22;3896;48.758;8.888;2023-05-20T10:45:05;22.90;71.60
7708;DHT22;3896;48.758;8.888;2023-05-20T10:47:31;23.10;70.60
7708;DHT22;3896;48.758;8.888;2023-05-20T10:49:57;23.20;69.80
7708;DHT22;3896;48.758;8.888;2023-05-20T10:52:23;23.20;69.10
7708;DHT22;3896;48.758;8.888;2023-05-20T10:54:56;23.40;68.70
7708;DHT22;3896;48.758;8.888;2023-05-20T10:57:22;23.40;68.30
7708;DHT22;3896;48.758;8.888;2023-05-20T10:59:49;23.50;67.60
7708;DHT22;3896;48.758;8.888;2023-05-20T11:02:15;23.50;67.00
7708;DHT22;3896;48.758;8.888;2023-05-20T11:04:45;23.60;66.40
7708;DHT22;3896;48.758;8.888;2023-05-20T11:07:11;23.70;66.20
7708;DHT22;3896;48.758;8.888;2023-05-20T11:09:37;23.80;66.60
7708;DHT22;3896;48.758;8.888;2023-05-20T11:12:03;23.90;65.80
7708;DHT22;3896;48.758;8.888;2023-05-20T11:14:29;24.00;65.70
7708;DHT22;3896;48.758;8.888;2023-05-20T11:16:56;24.10;65.40
7708;DHT22;3896;48.758;8.888;2023-05-20T11:19:22;24.20;64.80
7708;DHT22;3896;48.758;8.888;2023-05-20T11:21:48;24.30;64.70
7708;DHT22;3896;48.758;8.888;2023-05-20T11:24:21;24.40;64.20
7708;DHT22;3896;48.758;8.888;2023-05-20T11:26:47;24.50;64.00
7708;DHT22;3896;48.758;8.888;2023-05-20T11:29:12;24.70;64.10
7708;DHT22;3896;48.758;8.888;2023-05-20T11:31:38;24.80;63.90
7708;DHT22;3896;48.758;8.888;2023-05-20T11:34:03;24.90;63.30
7708;DHT22;3896;48.758;8.888;2023-05-20T11:36:29;25.00;62.60
7708;DHT22;3896;48.758;8.888;2023-05-20T11:38:59;25.10;62.00
7708;DHT22;3896;48.758;8.888;2023-05-20T11:41:25;25.20;62.20
7708;DHT22;3896;48.758;8.888;2023-05-20T11:43:58;25.40;61.40
7708;DHT22;3896;48.758;8.888;2023-05-20T11:46:24;25.50;60.60
7708;DHT22;3896;48.758;8.888;2023-05-20T11:48:53;25.60;59.90
7708;DHT22;3896;48.758;8.888;2023-05-20T11:51:23;25.60;59.70
7708;DHT22;3896;48.758;8.888;2023-05-20T11:53:49;25.70;59.20
7708;DHT22;3896;48.758;8.888;2023-05-20T11:56:15;25.80;58.80
7708;DHT22;3896;48.758;8.888;2023-05-20T11:58:42;25.80;58.60
7708;DHT22;3896;48.758;8.888;2023-05-20T12:01:08;26.00;58.40
7708;DHT22;3896;48.758;8.888;2023-05-20T12:03:34;26.00;58.00
7708;DHT22;3896;48.758;8.888;2023-05-20T12:06:01;26.10;57.90
7708;DHT22;3896;48.758;8.888;2023-05-20T12:08:27;26.20;57.20
7708;DHT22;3896;48.758;8.888;2023-05-20T12:10:52;26.20;57.00
7708;DHT22;3896;48.758;8.888;2023-05-20T12:13:18;26.20;56.80
7708;DHT22;3896;48.758;8.888;2023-05-20T12:15:43;26.20;56.50
7708;DHT22;3896;48.758;8.888;2023-05-20T12:18:09;26.20;56.30
7708;DHT22;3896;48.758;8.888;2023-05-20T12:20:35;26.30;56.60
7708;DHT22;3896;48.758;8.888;2023-05-20T12:23:01;26.30;56.30
7708;DHT22;3896;48.758;8.888;2023-05-20T12:25:27;26.40;56.20
7708;DHT22;3896;48.758;8.888;2023-05-20T12:27:54;26.40;56.40
7708;DHT22;3896;48.758;8.888;2023-05-20T12:30:21;26.50;55.90
7708;DHT22;3896;48.758;8.888;2023-05-20T12:32:48;26.60;55.50
7708;DHT22;3896;48.758;8.888;2023-05-20T12:35:15;26.70;55.10
7708;DHT22;3896;48.758;8.888;2023-05-20T12:37:42;26.80;54.80
7708;DHT22;3896;48.758;8.888;2023-05-20T12:40:09;26.90;54.50
7708;DHT22;3896;48.758;8.888;2023-05-20T12:42:36;26.90;54.30
7708;DHT22;3896;48.758;8.888;2023-05-20T12:45:02;27.00;53.90
7708;DHT22;3896;48.758;8.888;2023-05-20T12:47:28;27.10;53.80
7708;DHT22;3896;48.758;8.888;2023-05-20T12:49:53;27.20;53.70
7708;DHT22;3896;48.758;8.888;2023-05-20T12:52:19;27.20;53.80
7708;DHT22;3896;48.758;8.888;2023-05-20T12:54:44;27.30;54.00
7708;DHT22;3896;48.758;8.888;2023-05-20T12:57:10;27.40;54.60
7708;DHT22;3896;48.758;8.888;2023-05-20T12:59:36;27.40;53.20
7708;DHT22;3896;48.758;8.888;2023-05-20T13:02:02;27.50;53.10
7708;DHT22;3896;48.758;8.888;2023-05-20T13:04:27;27.50;52.80
7708;DHT22;3896;48.758;8.888;2023-05-20T13:06:53;27.60;53.00
7708;DHT22;3896;48.758;8.888;2023-05-20T13:09:19;27.60;52.50
7708;DHT22;3896;48.758;8.888;2023-05-20T13:11:45;27.60;52.60
7708;DHT22;3896;48.758;8.888;2023-05-20T13:14:10;27.60;52.30
7708;DHT22;3896;48.758;8.888;2023-05-20T13:16:37;27.60;52.00
7708;DHT22;3896;48.758;8.888;2023-05-20T13:19:02;27.70;52.00
7708;DHT22;3896;48.758;8.888;2023-05-20T13:21:28;27.60;52.10
7708;DHT22;3896;48.758;8.888;2023-05-20T13:23:53;27.60;52.50
7708;DHT22;3896;48.758;8.888;2023-05-20T13:26:19;27.60;52.30
7708;DHT22;3896;48.758;8.888;2023-05-20T13:28:44;27.60;52.30
7708;DHT22;3896;48.758;8.888;2023-05-20T13:31:10;27.70;52.20
7708;DHT22;3896;48.758;8.888;2023-05-20T13:33:36;27.70;52.30
7708;DHT22;3896;48.758;8.888;2023-05-20T13:36:01;27.60;52.10
7708;DHT22;3896;48.758;8.888;2023-05-20T13:38:27;27.70;51.90
7708;DHT22;3896;48.758;8.888;2023-05-20T13:40:52;27.70;52.00
7708;DHT22;3896;48.758;8.888;2023-05-20T13:43:18;27.70;52.00
7708;DHT22;3896;48.758;8.888;2023-05-20T13:45:43;27.70;52.30
7708;DHT22;3896;48.758;8.888;2023-05-20T13:48:09;27.80;52.20
7708;DHT22;3896;48.758;8.888;2023-05-20T13:50:35;27.90;52.20
7708;DHT22;3896;48.758;8.888;2023-05-20T13:53:01;28.10;52.10
7708;DHT22;3896;48.758;8.888;2023-05-20T13:55:26;28.20;51.80
7708;DHT22;3896;48.758;8.888;2023-05-20T13:57:52;28.30;51.60
7708;DHT22;3896;48.758;8.888;2023-05-20T14:00:19;28.30;51.00
7708;DHT22;3896;48.758;8.888;2023-05-20T14:02:44;28.40;50.90
7708;DHT22;3896;48.758;8.888;2023-05-20T14:05:12;28.40;50.50
7708;DHT22;3896;48.758;8.888;2023-05-20T14:07:37;28.50;50.50
7708;DHT22;3896;48.758;8.888;2023-05-20T14:10:04;28.60;50.30
7708;DHT22;3896;48.758;8.888;2023-05-20T14:12:30;28.70;50.00
7708;DHT22;3896;48.758;8.888;2023-05-20T14:14:55;28.80;50.30
7708;DHT22;3896;48.758;8.888;2023-05-20T14:17:22;29.00;50.10
7708;DHT22;3896;48.758;8.888;2023-05-20T14:19:47;29.10;50.10
7708;DHT22;3896;48.758;8.888;2023-05-20T14:22:13;29.30;49.60
7708;DHT22;3896;48.758;8.888;2023-05-20T14:24:40;29.30;49.10
7708;DHT22;3896;48.758;8.888;2023-05-20T14:27:05;29.40;48.90
7708;DHT22;3896;48.758;8.888;2023-05-20T14:29:31;29.50;48.70
7708;DHT22;3896;48.758;8.888;2023-05-20T14:31:56;29.50;48.30
7708;DHT22;3896;48.758;8.888;2023-05-20T14:34:22;29.60;48.20
7708;DHT22;3896;48.758;8.888;2023-05-20T14:36:47;29.70;48.00
7708;DHT22;3896;48.758;8.888;2023-05-20T14:39:13;29.80;47.80
7708;DHT22;3896;48.758;8.888;2023-05-20T14:41:38;29.80;47.80
7708;DHT22;3896;48.758;8.888;2023-05-20T14:44:04;29.90;47.70
7708;DHT22;3896;48.758;8.888;2023-05-20T14:46:30;29.80;47.60
7708;DHT22;3896;48.758;8.888;2023-05-20T14:48:55;29.80;47.20
7708;DHT22;3896;48.758;8.888;2023-05-20T14:51:21;29.80;47.40
7708;DHT22;3896;48.758;8.888;2023-05-20T14:53:46;29.70;47.20
7708;DHT22;3896;48.758;8.888;2023-05-20T14:56:12;29.70;47.30
7708;DHT22;3896;48.758;8.888;2023-05-20T14:58:38;29.60;47.20
7708;DHT22;3896;48.758;8.888;2023-05-20T15:01:03;29.60;47.00
7708;DHT22;3896;48.758;8.888;2023-05-20T15:03:29;29.50;47.00
7708;DHT22;3896;48.758;8.888;2023-05-20T15:05:55;29.40;47.70
7708;DHT22;3896;48.758;8.888;2023-05-20T15:08:20;29.40;47.20
7708;DHT22;3896;48.758;8.888;2023-05-20T15:10:46;29.30;47.20
7708;DHT22;3896;48.758;8.888;2023-05-20T15:13:11;29.20;47.30
7708;DHT22;3896;48.758;8.888;2023-05-20T15:15:37;29.10;47.40
7708;DHT22;3896;48.758;8.888;2023-05-20T15:18:03;29.10;47.50
7708;DHT22;3896;48.758;8.888;2023-05-20T15:20:28;29.10;47.40
7708;DHT22;3896;48.758;8.888;2023-05-20T15:22:55;28.90;47.20
7708;DHT22;3896;48.758;8.888;2023-05-20T15:25:20;28.90;47.20
7708;DHT22;3896;48.758;8.888;2023-05-20T15:27:46;28.80;47.50
7708;DHT22;3896;48.758;8.888;2023-05-20T15:30:12;28.70;47.70
7708;DHT22;3896;48.758;8.888;2023-05-20T15:32:38;28.60;48.00
7708;DHT22;3896;48.758;8.888;2023-05-20T15:35:04;28.50;48.00
7708;DHT22;3896;48.758;8.888;2023-05-20T15:37:30;28.50;48.10
7708;DHT22;3896;48.758;8.888;2023-05-20T15:39:55;28.40;48.20
7708;DHT22;3896;48.758;8.888;2023-05-20T15:42:21;28.30;48.10
7708;DHT22;3896;48.758;8.888;2023-05-20T15:44:47;28.30;48.50
7708;DHT22;3896;48.758;8.888;2023-05-20T15:47:12;28.20;48.80
7708;DHT22;3896;48.758;8.888;2023-05-20T15:49:38;28.20;48.80
7708;DHT22;3896;48.758;8.888;2023-05-20T15:52:04;28.10;48.70
7708;DHT22;3896;48.758;8.888;2023-05-20T15:54:30;28.00;48.70
7708;DHT22;3896;48.758;8.888;2023-05-20T15:56:56;28.00;48.60
7708;DHT22;3896;48.758;8.888;2023-05-20T15:59:22;27.90;49.00
7708;DHT22;3896;48.758;8.888;2023-05-20T16:01:47;27.80;49.30
7708;DHT22;3896;48.758;8.888;2023-05-20T16:04:13;27.70;49.40
7708;DHT22;3896;48.758;8.888;2023-05-20T16:06:38;27.60;49.60
7708;DHT22;3896;48.758;8.888;2023-05-20T16:09:04;27.60;49.80
7708;DHT22;3896;48.758;8.888;2023-05-20T16:11:30;27.50;50.10